sensor_id;sensor_type;location;lat;lon;timestamp;P1;durP1;ratioP1;P2;durP2;ratioP2
72926;SDS011;61071;51.618;19.388;2022-09-16T00:01:27;8.70;;;4.65;;
72926;SDS011;61071;51.618;19.388;2022-09-16T00:03:53;8.25;;;4.10;;
72926;SDS011;61071;51.618;19.388;2022-09-16T00:06:25;11.95;;;5.00;;
72926;SDS011;61071;51.618;19.388;2022-09-16T00:08:55;9.90;;;4.82;;
72926;SDS011;61071;51.618;19.388;2022-09-16T00:11:25;10.18;;;4.78;;
72926;SDS011;61071;51.618;19.388;2022-09-16T00:13:51;6.50;;;4.47;;
72926;SDS011;61071;51.618;19.388;2022-09-16T00:16:22;9.95;;;4.80;;
72926;SDS011;61071;51.618;19.388;2022-09-16T00:18:52;10.07;;;4.45;;
72926;SDS011;61071;51.618;19.388;2022-09-16T00:21:20;9.48;;;4.43;;
72926;SDS011;61071;51.618;19.388;2022-09-16T00:23:46;7.25;;;4.78;;
72926;SDS011;61071;51.618;19.388;2022-09-16T00:26:12;9.05;;;4.57;;
72926;SDS011;61071;51.618;19.388;2022-09-16T00:28:38;6.75;;;4.40;;
72926;SDS011;61071;51.618;19.388;2022-09-16T00:31:04;9.75;;;4.65;;
72926;SDS011;61071;51.618;19.388;2022-09-16T00:33:30;7.20;;;4.32;;
72926;SDS011;61071;51.618;19.388;2022-09-16T00:36:07;7.32;;;4.28;;
72926;SDS011;61071;51.618;19.388;2022-09-16T00:38:41;8.85;;;4.82;;
72926;SDS011;61071;51.618;19.388;2022-09-16T00:41:09;12.20;;;4.72;;
72926;SDS011;61071;51.618;19.388;2022-09-16T00:46:14;9.13;;;4.90;;
72926;SDS011;61071;51.618;19.388;2022-09-16T00:48:44;9.63;;;5.22;;
72926;SDS011;61071;51.618;19.388;2022-09-16T00:51:10;8.55;;;4.80;;
72926;SDS011;61071;51.618;19.388;2022-09-16T00:53:40;8.52;;;5.75;;
72926;SDS011;61071;51.618;19.388;2022-09-16T00:56:13;12.65;;;5.50;;
72926;SDS011;61071;51.618;19.388;2022-09-16T00:58:48;14.15;;;6.07;;
72926;SDS011;61071;51.618;19.388;2022-09-16T01:01:26;9.02;;;5.78;;
72926;SDS011;61071;51.618;19.388;2022-09-16T01:03:54;11.30;;;5.47;;
72926;SDS011;61071;51.618;19.388;2022-09-16T01:06:26;14.18;;;5.65;;
72926;SDS011;61071;51.618;19.388;2022-09-16T01:08:55;10.43;;;5.32;;
72926;SDS011;61071;51.618;19.388;2022-09-16T01:11:22;7.85;;;5.30;;
72926;SDS011;61071;51.618;19.388;2022-09-16T01:13:48;11.43;;;5.45;;
72926;SDS011;61071;51.618;19.388;2022-09-16T01:16:28;9.95;;;5.60;;
72926;SDS011;61071;51.618;19.388;2022-09-16T01:19:03;6.75;;;4.97;;
72926;SDS011;61071;51.618;19.388;2022-09-16T01:34:57;10.10;;;5.72;;
72926;SDS011;61071;51.618;19.388;2022-09-16T01:46:48;15.65;;;5.50;;
72926;SDS011;61071;51.618;19.388;2022-09-16T01:49:46;9.43;;;5.65;;
72926;SDS011;61071;51.618;19.388;2022-09-16T01:55:38;10.95;;;5.00;;
72926;SDS011;61071;51.618;19.388;2022-09-16T02:01:10;8.57;;;4.38;;
72926;SDS011;61071;51.618;19.388;2022-09-16T02:03:48;9.70;;;4.63;;
72926;SDS011;61071;51.618;19.388;2022-09-16T02:06:21;11.45;;;4.93;;
72926;SDS011;61071;51.618;19.388;2022-09-16T02:08:54;7.18;;;4.40;;
72926;SDS011;61071;51.618;19.388;2022-09-16T02:11:29;15.45;;;4.60;;
72926;SDS011;61071;51.618;19.388;2022-09-16T02:13:57;9.27;;;4.90;;
72926;SDS011;61071;51.618;19.388;2022-09-16T02:16:41;8.00;;;4.30;;
72926;SDS011;61071;51.618;19.388;2022-09-16T02:19:12;6.90;;;4.22;;
72926;SDS011;61071;51.618;19.388;2022-09-16T02:21:45;9.23;;;4.22;;
72926;SDS011;61071;51.618;19.388;2022-09-16T02:24:13;10.95;;;4.10;;
72926;SDS011;61071;51.618;19.388;2022-09-16T02:26:46;11.48;;;5.70;;
72926;SDS011;61071;51.618;19.388;2022-09-16T02:29:20;8.23;;;4.28;;
72926;SDS011;61071;51.618;19.388;2022-09-16T02:31:51;9.43;;;4.00;;
72926;SDS011;61071;51.618;19.388;2022-09-16T02:34:29;10.85;;;5.00;;
72926;SDS011;61071;51.618;19.388;2022-09-16T02:37:03;15.50;;;5.90;;
72926;SDS011;61071;51.618;19.388;2022-09-16T02:39:38;8.02;;;4.63;;
72926;SDS011;61071;51.618;19.388;2022-09-16T02:42:10;13.43;;;5.65;;
72926;SDS011;61071;51.618;19.388;2022-09-16T02:44:36;6.22;;;4.40;;
72926;SDS011;61071;51.618;19.388;2022-09-16T02:47:13;10.82;;;4.28;;
72926;SDS011;61071;51.618;19.388;2022-09-16T02:49:59;7.35;;;4.43;;
72926;SDS011;61071;51.618;19.388;2022-09-16T02:52:59;8.57;;;4.60;;
72926;SDS011;61071;51.618;19.388;2022-09-16T02:55:52;18.00;;;5.63;;
72926;SDS011;61071;51.618;19.388;2022-09-16T02:58:26;14.43;;;6.45;;
72926;SDS011;61071;51.618;19.388;2022-09-16T03:00:53;7.93;;;4.03;;
72926;SDS011;61071;51.618;19.388;2022-09-16T03:03:20;11.23;;;4.35;;
72926;SDS011;61071;51.618;19.388;2022-09-16T03:08:31;13.85;;;7.75;;
72926;SDS011;61071;51.618;19.388;2022-09-16T03:11:03;13.52;;;6.00;;
72926;SDS011;61071;51.618;19.388;2022-09-16T03:13:49;20.10;;;14.77;;
72926;SDS011;61071;51.618;19.388;2022-09-16T03:17:05;7.28;;;4.32;;
72926;SDS011;61071;51.618;19.388;2022-09-16T03:36:30;7.20;;;4.20;;
72926;SDS011;61071;51.618;19.388;2022-09-16T03:39:04;11.75;;;4.40;;
72926;SDS011;61071;51.618;19.388;2022-09-16T03:41:30;8.35;;;4.35;;
72926;SDS011;61071;51.618;19.388;2022-09-16T03:43:59;12.38;;;4.55;;
72926;SDS011;61071;51.618;19.388;2022-09-16T03:46:25;7.40;;;4.18;;
72926;SDS011;61071;51.618;19.388;2022-09-16T03:48:53;11.88;;;4.18;;
72926;SDS011;61071;51.618;19.388;2022-09-16T03:51:23;12.00;;;5.55;;
72926;SDS011;61071;51.618;19.388;2022-09-16T03:53:51;9.23;;;3.83;;
72926;SDS011;61071;51.618;19.388;2022-09-16T03:56:18;11.90;;;4.85;;
72926;SDS011;61071;51.618;19.388;2022-09-16T03:58:46;9.65;;;4.25;;
72926;SDS011;61071;51.618;19.388;2022-09-16T04:01:12;8.38;;;4.70;;
72926;SDS011;61071;51.618;19.388;2022-09-16T04:03:39;8.13;;;4.53;;
72926;SDS011;61071;51.618;19.388;2022-09-16T04:06:06;8.48;;;3.50;;
72926;SDS011;61071;51.618;19.388;2022-09-16T04:08:31;9.30;;;4.57;;
72926;SDS011;61071;51.618;19.388;2022-09-16T04:11:04;8.80;;;4.50;;
72926;SDS011;61071;51.618;19.388;2022-09-16T04:13:31;6.45;;;4.18;;
72926;SDS011;61071;51.618;19.388;2022-09-16T04:15:59;11.70;;;4.13;;
72926;SDS011;61071;51.618;19.388;2022-09-16T04:18:26;7.28;;;4.30;;
72926;SDS011;61071;51.618;19.388;2022-09-16T04:20:57;11.65;;;4.80;;
72926;SDS011;61071;51.618;19.388;2022-09-16T04:23:27;9.90;;;4.50;;
72926;SDS011;61071;51.618;19.388;2022-09-16T04:25:55;12.63;;;4.20;;
72926;SDS011;61071;51.618;19.388;2022-09-16T04:28:23;5.40;;;3.70;;
72926;SDS011;61071;51.618;19.388;2022-09-16T04:30:49;9.18;;;4.07;;
72926;SDS011;61071;51.618;19.388;2022-09-16T04:33:16;8.50;;;4.20;;
72926;SDS011;61071;51.618;19.388;2022-09-16T04:35:42;7.45;;;3.72;;
72926;SDS011;61071;51.618;19.388;2022-09-16T04:38:08;7.13;;;3.80;;
72926;SDS011;61071;51.618;19.388;2022-09-16T04:40:34;8.00;;;3.75;;
72926;SDS011;61071;51.618;19.388;2022-09-16T04:42:59;7.47;;;3.70;;
72926;SDS011;61071;51.618;19.388;2022-09-16T04:45:25;8.15;;;3.85;;
72926;SDS011;61071;51.618;19.388;2022-09-16T04:47:55;4.85;;;3.28;;
72926;SDS011;61071;51.618;19.388;2022-09-16T04:50:21;10.52;;;3.40;;
72926;SDS011;61071;51.618;19.388;2022-09-16T04:52:47;9.88;;;3.78;;
72926;SDS011;61071;51.618;19.388;2022-09-16T04:55:15;7.28;;;3.58;;
72926;SDS011;61071;51.618;19.388;2022-09-16T04:57:42;9.40;;;4.32;;
72926;SDS011;61071;51.618;19.388;2022-09-16T05:00:08;9.55;;;5.20;;
72926;SDS011;61071;51.618;19.388;2022-09-16T05:02:35;11.35;;;5.57;;
72926;SDS011;61071;51.618;19.388;2022-09-16T05:05:01;7.72;;;5.32;;
72926;SDS011;61071;51.618;19.388;2022-09-16T05:07:27;13.88;;;5.47;;
72926;SDS011;61071;51.618;19.388;2022-09-16T05:09:53;11.30;;;6.35;;
72926;SDS011;61071;51.618;19.388;2022-09-16T05:12:19;17.80;;;6.90;;
72926;SDS011;61071;51.618;19.388;2022-09-16T05:14:46;11.85;;;5.93;;
72926;SDS011;61071;51.618;19.388;2022-09-16T05:17:11;14.43;;;5.72;;
72926;SDS011;61071;51.618;19.388;2022-09-16T05:19:37;8.45;;;3.25;;
72926;SDS011;61071;51.618;19.388;2022-09-16T05:22:03;7.20;;;2.47;;
72926;SDS011;61071;51.618;19.388;2022-09-16T05:24:32;9.32;;;2.63;;
72926;SDS011;61071;51.618;19.388;2022-09-16T05:27:02;6.72;;;2.70;;
72926;SDS011;61071;51.618;19.388;2022-09-16T05:29:27;6.30;;;2.20;;
72926;SDS011;61071;51.618;19.388;2022-09-16T05:31:53;7.20;;;2.60;;
72926;SDS011;61071;51.618;19.388;2022-09-16T05:34:20;6.70;;;2.33;;
72926;SDS011;61071;51.618;19.388;2022-09-16T05:36:53;11.32;;;3.10;;
72926;SDS011;61071;51.618;19.388;2022-09-16T05:39:22;5.28;;;2.30;;
72926;SDS011;61071;51.618;19.388;2022-09-16T05:41:49;5.63;;;3.00;;
72926;SDS011;61071;51.618;19.388;2022-09-16T05:44:22;7.45;;;3.40;;
72926;SDS011;61071;51.618;19.388;2022-09-16T05:46:49;7.63;;;3.13;;
72926;SDS011;61071;51.618;19.388;2022-09-16T05:49:15;6.95;;;3.00;;
72926;SDS011;61071;51.618;19.388;2022-09-16T05:51:45;5.95;;;2.65;;
72926;SDS011;61071;51.618;19.388;2022-09-16T05:54:12;7.20;;;2.50;;
72926;SDS011;61071;51.618;19.388;2022-09-16T05:56:38;9.43;;;2.97;;
72926;SDS011;61071;51.618;19.388;2022-09-16T05:59:04;7.95;;;2.40;;
72926;SDS011;61071;51.618;19.388;2022-09-16T06:01:33;6.10;;;2.60;;
72926;SDS011;61071;51.618;19.388;2022-09-16T06:04:01;5.32;;;2.40;;
72926;SDS011;61071;51.618;19.388;2022-09-16T06:06:33;7.13;;;2.35;;
72926;SDS011;61071;51.618;19.388;2022-09-16T06:09:03;6.18;;;2.50;;
72926;SDS011;61071;51.618;19.388;2022-09-16T06:11:35;6.82;;;2.42;;
72926;SDS011;61071;51.618;19.388;2022-09-16T06:14:04;10.05;;;2.58;;
72926;SDS011;61071;51.618;19.388;2022-09-16T06:16:31;4.93;;;2.60;;
72926;SDS011;61071;51.618;19.388;2022-09-16T06:18:58;5.93;;;2.45;;
72926;SDS011;61071;51.618;19.388;2022-09-16T06:21:25;4.00;;;2.30;;
72926;SDS011;61071;51.618;19.388;2022-09-16T06:23:52;5.43;;;2.35;;
72926;SDS011;61071;51.618;19.388;2022-09-16T06:26:20;11.43;;;2.95;;
72926;SDS011;61071;51.618;19.388;2022-09-16T06:28:48;5.80;;;2.22;;
72926;SDS011;61071;51.618;19.388;2022-09-16T06:31:16;7.75;;;1.90;;
72926;SDS011;61071;51.618;19.388;2022-09-16T06:33:46;8.15;;;2.20;;
72926;SDS011;61071;51.618;19.388;2022-09-16T06:36:21;5.82;;;2.17;;
72926;SDS011;61071;51.618;19.388;2022-09-16T06:38:54;9.30;;;2.40;;
72926;SDS011;61071;51.618;19.388;2022-09-16T06:41:20;6.35;;;2.70;;
72926;SDS011;61071;51.618;19.388;2022-09-16T06:43:47;7.63;;;1.95;;
72926;SDS011;61071;51.618;19.388;2022-09-16T06:46:17;7.25;;;1.88;;
72926;SDS011;61071;51.618;19.388;2022-09-16T06:48:49;9.80;;;2.28;;
72926;SDS011;61071;51.618;19.388;2022-09-16T06:51:19;6.30;;;2.25;;
72926;SDS011;61071;51.618;19.388;2022-09-16T06:53:50;7.32;;;2.10;;
72926;SDS011;61071;51.618;19.388;2022-09-16T06:56:20;9.52;;;2.10;;
72926;SDS011;61071;51.618;19.388;2022-09-16T06:58:48;6.50;;;2.35;;
72926;SDS011;61071;51.618;19.388;2022-09-16T07:01:29;8.20;;;1.92;;
72926;SDS011;61071;51.618;19.388;2022-09-16T07:03:56;9.98;;;2.10;;
72926;SDS011;61071;51.618;19.388;2022-09-16T07:06:23;8.98;;;2.30;;
72926;SDS011;61071;51.618;19.388;2022-09-16T07:08:54;8.75;;;2.00;;
72926;SDS011;61071;51.618;19.388;2022-09-16T07:11:20;7.00;;;2.17;;
72926;SDS011;61071;51.618;19.388;2022-09-16T07:13:48;12.82;;;2.33;;
72926;SDS011;61071;51.618;19.388;2022-09-16T07:16:16;10.23;;;2.25;;
72926;SDS011;61071;51.618;19.388;2022-09-16T07:18:45;6.22;;;1.77;;
72926;SDS011;61071;51.618;19.388;2022-09-16T07:21:16;5.95;;;2.00;;
72926;SDS011;61071;51.618;19.388;2022-09-16T07:23:44;6.22;;;2.38;;
72926;SDS011;61071;51.618;19.388;2022-09-16T07:26:14;7.07;;;2.30;;
72926;SDS011;61071;51.618;19.388;2022-09-16T07:28:43;9.20;;;2.10;;
72926;SDS011;61071;51.618;19.388;2022-09-16T07:31:44;4.65;;;1.80;;
72926;SDS011;61071;51.618;19.388;2022-09-16T07:34:04;6.65;;;2.00;;
72926;SDS011;61071;51.618;19.388;2022-09-16T07:36:36;9.32;;;2.70;;
72926;SDS011;61071;51.618;19.388;2022-09-16T07:39:09;9.85;;;2.60;;
72926;SDS011;61071;51.618;19.388;2022-09-16T07:41:39;5.53;;;2.05;;
72926;SDS011;61071;51.618;19.388;2022-09-16T07:44:08;9.63;;;2.10;;
72926;SDS011;61071;51.618;19.388;2022-09-16T07:46:37;10.73;;;1.80;;
72926;SDS011;61071;51.618;19.388;2022-09-16T07:49:05;10.98;;;2.20;;
72926;SDS011;61071;51.618;19.388;2022-09-16T07:51:32;4.90;;;1.67;;
72926;SDS011;61071;51.618;19.388;2022-09-16T07:53:59;15.65;;;2.00;;
72926;SDS011;61071;51.618;19.388;2022-09-16T07:56:31;9.88;;;2.33;;
72926;SDS011;61071;51.618;19.388;2022-09-16T07:59:00;6.22;;;2.33;;
72926;SDS011;61071;51.618;19.388;2022-09-16T08:01:28;6.82;;;1.70;;
72926;SDS011;61071;51.618;19.388;2022-09-16T08:03:55;4.63;;;1.60;;
72926;SDS011;61071;51.618;19.388;2022-09-16T08:06:23;9.63;;;2.25;;
72926;SDS011;61071;51.618;19.388;2022-09-16T08:08:52;10.20;;;1.98;;
72926;SDS011;61071;51.618;19.388;2022-09-16T08:11:20;8.85;;;2.92;;
72926;SDS011;61071;51.618;19.388;2022-09-16T08:13:46;8.00;;;2.30;;
72926;SDS011;61071;51.618;19.388;2022-09-16T08:16:13;10.88;;;2.47;;
72926;SDS011;61071;51.618;19.388;2022-09-16T08:18:44;8.18;;;1.75;;
72926;SDS011;61071;51.618;19.388;2022-09-16T08:21:14;8.23;;;2.40;;
72926;SDS011;61071;51.618;19.388;2022-09-16T08:23:42;9.93;;;2.03;;
72926;SDS011;61071;51.618;19.388;2022-09-16T08:26:09;8.45;;;2.10;;
72926;SDS011;61071;51.618;19.388;2022-09-16T08:28:37;9.18;;;1.80;;
72926;SDS011;61071;51.618;19.388;2022-09-16T08:31:05;10.55;;;2.03;;
72926;SDS011;61071;51.618;19.388;2022-09-16T08:33:32;6.75;;;1.92;;
72926;SDS011;61071;51.618;19.388;2022-09-16T08:36:03;6.57;;;2.20;;
72926;SDS011;61071;51.618;19.388;2022-09-16T08:38:35;7.07;;;2.50;;
72926;SDS011;61071;51.618;19.388;2022-09-16T08:41:06;8.90;;;2.08;;
72926;SDS011;61071;51.618;19.388;2022-09-16T08:44:04;5.18;;;1.58;;
72926;SDS011;61071;51.618;19.388;2022-09-16T08:49:50;5.35;;;1.70;;
72926;SDS011;61071;51.618;19.388;2022-09-16T08:52:28;6.22;;;1.77;;
72926;SDS011;61071;51.618;19.388;2022-09-16T08:55:02;4.32;;;1.60;;
72926;SDS011;61071;51.618;19.388;2022-09-16T08:57:39;5.53;;;1.60;;
72926;SDS011;61071;51.618;19.388;2022-09-16T09:00:13;13.85;;;1.80;;
72926;SDS011;61071;51.618;19.388;2022-09-16T09:02:55;4.90;;;1.65;;
72926;SDS011;61071;51.618;19.388;2022-09-16T09:11:36;6.70;;;1.88;;
72926;SDS011;61071;51.618;19.388;2022-09-16T09:45:46;5.35;;;1.38;;
72926;SDS011;61071;51.618;19.388;2022-09-16T09:48:41;4.07;;;1.63;;
72926;SDS011;61071;51.618;19.388;2022-09-16T09:56:52;6.05;;;1.60;;
72926;SDS011;61071;51.618;19.388;2022-09-16T09:59:38;4.82;;;1.38;;
72926;SDS011;61071;51.618;19.388;2022-09-16T10:02:22;3.78;;;1.60;;
72926;SDS011;61071;51.618;19.388;2022-09-16T10:04:48;3.17;;;1.65;;
72926;SDS011;61071;51.618;19.388;2022-09-16T10:07:16;4.38;;;1.42;;
72926;SDS011;61071;51.618;19.388;2022-09-16T10:10:32;6.30;;;1.60;;
72926;SDS011;61071;51.618;19.388;2022-09-16T10:12:49;4.68;;;1.65;;
72926;SDS011;61071;51.618;19.388;2022-09-16T10:15:18;6.38;;;2.03;;
72926;SDS011;61071;51.618;19.388;2022-09-16T10:17:48;2.10;;;1.30;;
72926;SDS011;61071;51.618;19.388;2022-09-16T10:23:04;3.13;;;1.50;;
72926;SDS011;61071;51.618;19.388;2022-09-16T10:25:38;4.53;;;1.85;;
72926;SDS011;61071;51.618;19.388;2022-09-16T10:28:16;3.83;;;1.48;;
72926;SDS011;61071;51.618;19.388;2022-09-16T10:30:55;6.78;;;1.63;;
72926;SDS011;61071;51.618;19.388;2022-09-16T10:33:27;2.45;;;1.48;;
72926;SDS011;61071;51.618;19.388;2022-09-16T10:36:00;4.82;;;2.00;;
72926;SDS011;61071;51.618;19.388;2022-09-16T10:38:35;8.82;;;2.92;;
72926;SDS011;61071;51.618;19.388;2022-09-16T10:41:16;7.55;;;2.53;;
72926;SDS011;61071;51.618;19.388;2022-09-16T10:43:50;3.28;;;1.80;;
72926;SDS011;61071;51.618;19.388;2022-09-16T10:46:23;3.50;;;1.65;;
72926;SDS011;61071;51.618;19.388;2022-09-16T10:48:50;5.32;;;1.58;;
72926;SDS011;61071;51.618;19.388;2022-09-16T10:51:30;3.25;;;1.52;;
72926;SDS011;61071;51.618;19.388;2022-09-16T10:53:59;4.75;;;1.90;;
72926;SDS011;61071;51.618;19.388;2022-09-16T10:56:28;2.08;;;1.50;;
72926;SDS011;61071;51.618;19.388;2022-09-16T10:59:19;5.20;;;1.60;;
72926;SDS011;61071;51.618;19.388;2022-09-16T11:11:33;7.47;;;1.67;;
72926;SDS011;61071;51.618;19.388;2022-09-16T11:14:26;10.20;;;2.03;;
72926;SDS011;61071;51.618;19.388;2022-09-16T11:30:27;2.22;;;1.77;;
72926;SDS011;61071;51.618;19.388;2022-09-16T11:33:11;3.80;;;1.60;;
72926;SDS011;61071;51.618;19.388;2022-09-16T11:41:49;3.00;;;1.42;;
72926;SDS011;61071;51.618;19.388;2022-09-16T11:44:38;2.45;;;1.42;;
72926;SDS011;61071;51.618;19.388;2022-09-16T11:47:28;3.80;;;1.88;;
72926;SDS011;61071;51.618;19.388;2022-09-16T11:50:12;3.13;;;1.50;;
72926;SDS011;61071;51.618;19.388;2022-09-16T11:56:40;4.60;;;1.65;;
72926;SDS011;61071;51.618;19.388;2022-09-16T12:08:21;4.40;;;1.85;;
72926;SDS011;61071;51.618;19.388;2022-09-16T12:11:39;5.35;;;1.90;;
72926;SDS011;61071;51.618;19.388;2022-09-16T12:14:17;3.22;;;1.60;;
72926;SDS011;61071;51.618;19.388;2022-09-16T12:19:34;4.35;;;2.08;;
72926;SDS011;61071;51.618;19.388;2022-09-16T12:22:09;2.70;;;1.67;;
72926;SDS011;61071;51.618;19.388;2022-09-16T12:25:02;3.10;;;1.90;;
72926;SDS011;61071;51.618;19.388;2022-09-16T12:27:40;5.22;;;2.10;;
72926;SDS011;61071;51.618;19.388;2022-09-16T12:30:26;2.55;;;1.70;;
72926;SDS011;61071;51.618;19.388;2022-09-16T12:33:01;3.03;;;1.60;;
72926;SDS011;61071;51.618;19.388;2022-09-16T12:35:41;4.63;;;1.98;;
72926;SDS011;61071;51.618;19.388;2022-09-16T12:38:23;4.40;;;2.10;;
72926;SDS011;61071;51.618;19.388;2022-09-16T13:02:03;6.90;;;2.17;;
72926;SDS011;61071;51.618;19.388;2022-09-16T13:04:44;2.92;;;2.10;;
72926;SDS011;61071;51.618;19.388;2022-09-16T13:07:22;7.75;;;2.35;;
72926;SDS011;61071;51.618;19.388;2022-09-16T13:09:59;2.75;;;1.50;;
72926;SDS011;61071;51.618;19.388;2022-09-16T13:12:26;2.10;;;1.33;;
72926;SDS011;61071;51.618;19.388;2022-09-16T13:14:57;2.80;;;1.10;;
72926;SDS011;61071;51.618;19.388;2022-09-16T13:17:27;2.72;;;1.30;;
72926;SDS011;61071;51.618;19.388;2022-09-16T13:20:03;2.55;;;1.40;;
72926;SDS011;61071;51.618;19.388;2022-09-16T13:31:07;2.15;;;1.00;;
72926;SDS011;61071;51.618;19.388;2022-09-16T13:33:37;6.25;;;1.27;;
72926;SDS011;61071;51.618;19.388;2022-09-16T13:36:32;4.10;;;1.33;;
72926;SDS011;61071;51.618;19.388;2022-09-16T13:39:03;3.55;;;1.42;;
72926;SDS011;61071;51.618;19.388;2022-09-16T13:41:36;3.00;;;1.10;;
72926;SDS011;61071;51.618;19.388;2022-09-16T13:49:42;6.63;;;1.55;;
72926;SDS011;61071;51.618;19.388;2022-09-16T13:52:23;4.70;;;1.20;;
72926;SDS011;61071;51.618;19.388;2022-09-16T13:54:57;4.85;;;1.27;;
72926;SDS011;61071;51.618;19.388;2022-09-16T14:03:29;3.58;;;1.27;;
72926;SDS011;61071;51.618;19.388;2022-09-16T14:12:07;5.75;;;1.30;;
72926;SDS011;61071;51.618;19.388;2022-09-16T14:14:57;4.55;;;1.10;;
72926;SDS011;61071;51.618;19.388;2022-09-16T14:17:25;2.40;;;1.05;;
72926;SDS011;61071;51.618;19.388;2022-09-16T14:20:01;1.83;;;1.10;;
72926;SDS011;61071;51.618;19.388;2022-09-16T14:22:27;7.63;;;1.20;;
72926;SDS011;61071;51.618;19.388;2022-09-16T14:24:55;1.55;;;0.90;;
72926;SDS011;61071;51.618;19.388;2022-09-16T14:27:28;2.70;;;1.10;;
72926;SDS011;61071;51.618;19.388;2022-09-16T14:30:04;3.20;;;1.40;;
72926;SDS011;61071;51.618;19.388;2022-09-16T14:32:39;3.92;;;1.17;;
72926;SDS011;61071;51.618;19.388;2022-09-16T14:35:16;1.95;;;1.15;;
72926;SDS011;61071;51.618;19.388;2022-09-16T14:37:51;2.63;;;1.20;;
72926;SDS011;61071;51.618;19.388;2022-09-16T14:40:23;3.65;;;1.10;;
72926;SDS011;61071;51.618;19.388;2022-09-16T14:42:51;2.40;;;1.20;;
72926;SDS011;61071;51.618;19.388;2022-09-16T14:45:27;2.80;;;1.27;;
72926;SDS011;61071;51.618;19.388;2022-09-16T14:47:55;4.20;;;1.45;;
72926;SDS011;61071;51.618;19.388;2022-09-16T14:50:39;2.73;;;1.30;;
72926;SDS011;61071;51.618;19.388;2022-09-16T14:56:14;3.03;;;1.10;;
72926;SDS011;61071;51.618;19.388;2022-09-16T14:58:44;2.65;;;1.40;;
72926;SDS011;61071;51.618;19.388;2022-09-16T15:01:13;2.53;;;1.20;;
72926;SDS011;61071;51.618;19.388;2022-09-16T15:03:52;3.95;;;1.40;;
72926;SDS011;61071;51.618;19.388;2022-09-16T15:06:41;4.25;;;1.40;;
72926;SDS011;61071;51.618;19.388;2022-09-16T15:09:18;4.70;;;1.40;;
72926;SDS011;61071;51.618;19.388;2022-09-16T15:11:56;3.92;;;1.40;;
72926;SDS011;61071;51.618;19.388;2022-09-16T15:14:24;3.53;;;1.40;;
72926;SDS011;61071;51.618;19.388;2022-09-16T15:16:56;4.38;;;1.67;;
72926;SDS011;61071;51.618;19.388;2022-09-16T15:19:29;3.60;;;1.42;;
72926;SDS011;61071;51.618;19.388;2022-09-16T15:22:00;5.47;;;1.50;;
72926;SDS011;61071;51.618;19.388;2022-09-16T15:24:31;3.38;;;1.75;;
72926;SDS011;61071;51.618;19.388;2022-09-16T15:26:59;5.80;;;1.60;;
72926;SDS011;61071;51.618;19.388;2022-09-16T15:29:27;5.63;;;1.65;;
72926;SDS011;61071;51.618;19.388;2022-09-16T15:32:13;3.63;;;1.40;;
72926;SDS011;61071;51.618;19.388;2022-09-16T15:34:40;3.55;;;1.42;;
72926;SDS011;61071;51.618;19.388;2022-09-16T15:37:26;4.75;;;2.10;;
72926;SDS011;61071;51.618;19.388;2022-09-16T15:40:08;5.68;;;1.85;;
72926;SDS011;61071;51.618;19.388;2022-09-16T15:42:41;4.55;;;1.77;;
72926;SDS011;61071;51.618;19.388;2022-09-16T15:45:15;3.47;;;1.65;;
72926;SDS011;61071;51.618;19.388;2022-09-16T15:47:51;4.28;;;2.10;;
72926;SDS011;61071;51.618;19.388;2022-09-16T15:50:26;3.78;;;1.73;;
72926;SDS011;61071;51.618;19.388;2022-09-16T15:53:20;3.88;;;1.60;;
72926;SDS011;61071;51.618;19.388;2022-09-16T15:56:06;5.28;;;2.10;;
72926;SDS011;61071;51.618;19.388;2022-09-16T15:59:03;3.47;;;1.60;;
72926;SDS011;61071;51.618;19.388;2022-09-16T16:01:52;3.42;;;1.50;;
72926;SDS011;61071;51.618;19.388;2022-09-16T16:04:25;3.30;;;1.40;;
72926;SDS011;61071;51.618;19.388;2022-09-16T16:11:51;3.00;;;1.30;;
72926;SDS011;61071;51.618;19.388;2022-09-16T16:14:40;4.60;;;1.40;;
72926;SDS011;61071;51.618;19.388;2022-09-16T16:19:42;3.72;;;1.40;;
72926;SDS011;61071;51.618;19.388;2022-09-16T16:22:10;5.20;;;1.65;;
72926;SDS011;61071;51.618;19.388;2022-09-16T16:24:37;4.47;;;1.48;;
72926;SDS011;61071;51.618;19.388;2022-09-16T16:27:03;3.33;;;1.70;;
72926;SDS011;61071;51.618;19.388;2022-09-16T16:29:30;2.88;;;1.45;;
72926;SDS011;61071;51.618;19.388;2022-09-16T16:32:00;4.63;;;1.73;;
72926;SDS011;61071;51.618;19.388;2022-09-16T16:34:33;3.13;;;1.27;;
72926;SDS011;61071;51.618;19.388;2022-09-16T16:37:02;3.45;;;1.40;;
72926;SDS011;61071;51.618;19.388;2022-09-16T16:39:28;3.22;;;1.40;;
72926;SDS011;61071;51.618;19.388;2022-09-16T16:41:54;5.57;;;1.70;;
72926;SDS011;61071;51.618;19.388;2022-09-16T16:44:21;1.85;;;1.35;;
72926;SDS011;61071;51.618;19.388;2022-09-16T16:46:52;2.22;;;1.40;;
72926;SDS011;61071;51.618;19.388;2022-09-16T16:49:19;3.47;;;1.60;;
72926;SDS011;61071;51.618;19.388;2022-09-16T16:51:47;2.85;;;1.63;;
72926;SDS011;61071;51.618;19.388;2022-09-16T16:54:19;3.63;;;1.40;;
72926;SDS011;61071;51.618;19.388;2022-09-16T16:56:46;6.20;;;2.00;;
72926;SDS011;61071;51.618;19.388;2022-09-16T16:59:12;6.15;;;2.13;;
72926;SDS011;61071;51.618;19.388;2022-09-16T17:01:39;6.78;;;2.63;;
72926;SDS011;61071;51.618;19.388;2022-09-16T17:04:06;4.53;;;2.72;;
72926;SDS011;61071;51.618;19.388;2022-09-16T17:06:32;9.82;;;2.88;;
72926;SDS011;61071;51.618;19.388;2022-09-16T17:08:59;10.32;;;3.40;;
72926;SDS011;61071;51.618;19.388;2022-09-16T17:11:26;6.07;;;2.97;;
72926;SDS011;61071;51.618;19.388;2022-09-16T17:13:52;6.10;;;3.22;;
72926;SDS011;61071;51.618;19.388;2022-09-16T17:16:26;4.95;;;2.45;;
72926;SDS011;61071;51.618;19.388;2022-09-16T17:18:54;6.65;;;2.70;;
72926;SDS011;61071;51.618;19.388;2022-09-16T17:21:24;7.80;;;2.88;;
72926;SDS011;61071;51.618;19.388;2022-09-16T17:23:53;4.07;;;2.30;;
72926;SDS011;61071;51.618;19.388;2022-09-16T17:26:20;4.10;;;2.13;;
72926;SDS011;61071;51.618;19.388;2022-09-16T17:28:48;7.97;;;3.03;;
72926;SDS011;61071;51.618;19.388;2022-09-16T17:31:17;7.38;;;2.95;;
72926;SDS011;61071;51.618;19.388;2022-09-16T17:33:56;9.32;;;2.88;;
72926;SDS011;61071;51.618;19.388;2022-09-16T17:36:33;7.35;;;2.83;;
72926;SDS011;61071;51.618;19.388;2022-09-16T17:39:05;7.50;;;2.90;;
72926;SDS011;61071;51.618;19.388;2022-09-16T17:41:35;9.23;;;3.63;;
72926;SDS011;61071;51.618;19.388;2022-09-16T17:44:05;8.45;;;3.15;;
72926;SDS011;61071;51.618;19.388;2022-09-16T17:46:32;9.75;;;3.40;;
72926;SDS011;61071;51.618;19.388;2022-09-16T17:48:59;6.90;;;3.00;;
72926;SDS011;61071;51.618;19.388;2022-09-16T17:51:29;7.28;;;3.30;;
72926;SDS011;61071;51.618;19.388;2022-09-16T17:53:57;8.50;;;4.05;;
72926;SDS011;61071;51.618;19.388;2022-09-16T17:56:23;7.03;;;3.10;;
72926;SDS011;61071;51.618;19.388;2022-09-16T17:58:50;5.43;;;3.05;;
72926;SDS011;61071;51.618;19.388;2022-09-16T18:01:18;5.20;;;2.72;;
72926;SDS011;61071;51.618;19.388;2022-09-16T18:03:51;3.95;;;2.20;;
72926;SDS011;61071;51.618;19.388;2022-09-16T18:06:23;6.20;;;2.35;;
72926;SDS011;61071;51.618;19.388;2022-09-16T18:08:52;13.63;;;6.57;;
72926;SDS011;61071;51.618;19.388;2022-09-16T18:11:19;7.97;;;2.92;;
72926;SDS011;61071;51.618;19.388;2022-09-16T18:13:46;4.93;;;2.22;;
72926;SDS011;61071;51.618;19.388;2022-09-16T18:16:14;6.00;;;2.80;;
72926;SDS011;61071;51.618;19.388;2022-09-16T18:18:42;5.75;;;2.63;;
72926;SDS011;61071;51.618;19.388;2022-09-16T18:21:10;5.07;;;2.75;;
72926;SDS011;61071;51.618;19.388;2022-09-16T18:23:42;6.00;;;2.72;;
72926;SDS011;61071;51.618;19.388;2022-09-16T18:26:09;5.72;;;2.95;;